createdAt,value
2018-06-18T00:00:38.962Z,997.43
2018-06-18T00:01:48.510Z,997.49
2018-06-18T00:02:58.329Z,997.46
2018-06-18T00:04:08.409Z,997.47
2018-06-18T00:05:18.476Z,997.36
2018-06-18T00:06:28.281Z,997.37
2018-06-18T00:07:37.882Z,997.47
2018-06-18T00:08:47.935Z,997.4
2018-06-18T00:09:58.012Z,997.4
2018-06-18T00:11:07.810Z,997.43
2018-06-18T00:12:17.876Z,997.46
2018-06-18T00:13:27.705Z,997.47
2018-06-18T00:14:37.781Z,997.46
2018-06-18T00:15:47.864Z,997.42
2018-06-18T00:16:57.926Z,997.5
2018-06-18T00:18:07.751Z,997.44
2018-06-18T00:19:17.577Z,997.49
2018-06-18T00:20:27.635Z,997.46
2018-06-18T00:21:37.438Z,997.55
2018-06-18T00:22:47.530Z,997.51
2018-06-18T00:23:57.341Z,997.46
2018-06-18T00:25:07.403Z,997.48
2018-06-18T00:26:17.482Z,997.56
2018-06-18T00:27:27.296Z,997.55
2018-06-18T00:28:36.849Z,997.53
2018-06-18T00:29:46.656Z,997.58
2018-06-18T00:30:56.732Z,997.56
2018-06-18T00:32:06.811Z,997.59
2018-06-18T00:33:16.899Z,997.59
2018-06-18T00:34:26.986Z,997.59
2018-06-18T00:35:37.058Z,997.59
2018-06-18T00:36:47.192Z,997.6
2018-06-18T00:37:57.266Z,997.59
2018-06-18T00:39:07.333Z,997.56
2018-06-18T00:40:17.419Z,997.55
2018-06-18T00:41:27.511Z,997.52
2018-06-18T00:42:37.635Z,997.54
2018-06-18T00:43:47.701Z,997.55
2018-06-18T00:44:57.801Z,997.48
2018-06-18T00:46:07.354Z,997.54
2018-06-18T00:47:17.174Z,997.51
2018-06-18T00:48:27.262Z,997.47
2018-06-18T00:49:37.079Z,997.49
2018-06-18T00:50:46.892Z,997.52
2018-06-18T00:51:57.013Z,997.52
2018-06-18T00:53:07.096Z,997.57
2018-06-18T00:54:16.651Z,997.52
2018-06-18T00:55:26.733Z,997.51
2018-06-18T00:56:36.802Z,997.46
2018-06-18T00:57:46.616Z,997.5
2018-06-18T00:58:56.701Z,997.45
2018-06-18T01:00:06.767Z,997.46
2018-06-18T01:01:16.566Z,997.5
2018-06-18T01:02:26.698Z,997.51
2018-06-18T01:03:36.766Z,997.54
2018-06-18T01:04:46.326Z,997.51
2018-06-18T01:05:56.405Z,997.53
2018-06-18T01:07:06.230Z,997.48
2018-06-18T01:08:15.784Z,997.52
2018-06-18T01:09:25.596Z,997.56
2018-06-18T01:10:35.695Z,997.5
2018-06-18T01:11:45.502Z,997.49
2018-06-18T01:12:55.314Z,997.52
2018-06-18T01:14:05.393Z,997.44
2018-06-18T01:15:15.200Z,997.5
2018-06-18T01:16:25.005Z,997.46
2018-06-18T01:17:35.082Z,997.44
2018-06-18T01:18:45.163Z,997.46
2018-06-18T01:19:55.265Z,997.44
2018-06-18T01:21:04.816Z,997.52
2018-06-18T01:22:14.629Z,997.52
2018-06-18T01:23:24.705Z,997.48
2018-06-18T01:24:34.773Z,997.52
2018-06-18T01:25:44.588Z,997.54
2018-06-18T01:26:54.384Z,997.58
2018-06-18T01:28:04.455Z,997.56
2018-06-18T01:29:14.524Z,997.57
2018-06-18T01:30:24.370Z,997.55
2018-06-18T01:31:34.177Z,997.55
2018-06-18T01:32:44.259Z,997.56
2018-06-18T01:33:54.340Z,997.51
2018-06-18T01:35:04.402Z,997.54
2018-06-18T01:36:14.226Z,997.46
2018-06-18T01:37:24.316Z,997.54
2018-06-18T01:38:34.391Z,997.52
2018-06-18T01:39:44.473Z,997.52
2018-06-18T01:40:54.545Z,997.58
2018-06-18T01:42:04.623Z,997.58
2018-06-18T01:43:14.688Z,997.56
2018-06-18T01:44:24.761Z,997.58
2018-06-18T01:45:34.830Z,997.6
2018-06-18T01:46:44.904Z,997.6
2018-06-18T01:47:54.972Z,997.61
2018-06-18T01:49:04.529Z,997.58
2018-06-18T01:50:14.607Z,997.59
2018-06-18T01:51:24.663Z,997.57
2018-06-18T01:52:34.728Z,997.62
2018-06-18T01:53:44.789Z,997.64
2018-06-18T01:54:54.857Z,997.65
2018-06-18T01:56:04.949Z,997.67
2018-06-18T01:57:15.011Z,997.65
2018-06-18T01:58:25.092Z,997.71
2018-06-18T01:59:35.161Z,997.71
2018-06-18T02:00:44.708Z,997.71
2018-06-18T02:01:54.779Z,997.71
2018-06-18T02:03:04.863Z,997.78
2018-06-18T02:04:14.669Z,997.71
2018-06-18T02:05:24.487Z,997.74
2018-06-18T02:06:34.795Z,997.65
2018-06-18T02:07:44.880Z,997.69
2018-06-18T02:08:54.965Z,997.7
2018-06-18T02:10:05.034Z,997.69
2018-06-18T02:11:14.865Z,997.74
2018-06-18T02:12:24.931Z,997.75
2018-06-18T02:13:34.742Z,997.72
2018-06-18T02:14:44.821Z,997.74
2018-06-18T02:15:54.628Z,997.81
2018-06-18T02:17:04.728Z,997.79
2018-06-18T02:18:14.817Z,997.77
2018-06-18T02:19:24.901Z,997.8
2018-06-18T02:20:34.990Z,997.79
2018-06-18T02:21:45.052Z,997.79
2018-06-18T02:22:54.900Z,997.8
2018-06-18T02:24:04.977Z,997.8
2018-06-18T02:25:14.793Z,997.82
2018-06-18T02:26:24.854Z,997.8
2018-06-18T02:27:34.927Z,997.76
2018-06-18T02:28:44.983Z,997.85
2018-06-18T02:29:54.545Z,997.83
2018-06-18T02:31:04.617Z,997.8
2018-06-18T02:32:14.768Z,997.84
2018-06-18T02:33:24.898Z,997.81
2018-06-18T02:34:34.759Z,997.86
2018-06-18T02:35:44.885Z,997.84
2018-06-18T02:36:54.700Z,997.87
2018-06-18T02:38:04.794Z,997.91
2018-06-18T02:39:14.894Z,997.93
2018-06-18T02:40:24.973Z,997.9
2018-06-18T02:41:34.788Z,997.99
2018-06-18T02:42:44.616Z,997.94
2018-06-18T02:43:54.711Z,997.95
2018-06-18T02:45:04.874Z,997.98
2018-06-18T02:46:15.005Z,998.05
2018-06-18T02:47:25.081Z,998.07
2018-06-18T02:48:35.167Z,998.07
2018-06-18T02:49:44.998Z,998.11
2018-06-18T02:50:55.078Z,998.1
2018-06-18T02:52:05.145Z,998.16
2018-06-18T02:53:14.978Z,998.14
2018-06-18T02:54:25.050Z,998.13
2018-06-18T02:55:35.139Z,998.18
2018-06-18T02:56:45.218Z,998.2
2018-06-18T02:57:55.282Z,998.16
2018-06-18T02:59:05.353Z,998.2
2018-06-18T03:00:15.469Z,998.26
2018-06-18T03:01:25.995Z,998.23
2018-06-18T03:02:35.859Z,998.29
2018-06-18T03:34:29.756Z,998.38
2018-06-18T03:35:39.833Z,998.45
2018-06-18T03:36:49.643Z,998.48
2018-06-18T03:37:59.208Z,998.44
2018-06-18T03:39:09.039Z,998.53
2018-06-18T03:40:19.109Z,998.5
2018-06-18T03:41:29.168Z,998.52
2018-06-18T03:42:39.231Z,998.54
2018-06-18T03:43:49.289Z,998.55
2018-06-18T03:44:59.342Z,998.57
2018-06-18T03:46:09.161Z,998.6
2018-06-18T03:47:19.232Z,998.63
2018-06-18T03:48:29.302Z,998.65
2018-06-18T03:49:39.363Z,998.7
2018-06-18T03:50:49.445Z,998.72
2018-06-18T03:51:59.586Z,998.68
2018-06-18T03:53:09.670Z,998.74
2018-06-18T03:54:19.753Z,998.75
2018-06-18T03:55:29.835Z,998.8
2018-06-18T03:56:39.907Z,998.79
2018-06-18T03:57:50.055Z,998.75
2018-06-18T03:59:00.139Z,998.85
2018-06-18T04:00:10.230Z,998.78
2018-06-18T04:01:20.055Z,998.83
2018-06-18T04:02:29.602Z,998.83
2018-06-18T04:03:39.722Z,998.84
2018-06-18T04:04:49.531Z,998.8
2018-06-18T04:05:59.344Z,998.7
2018-06-18T04:07:09.425Z,998.83
2018-06-18T04:08:19.506Z,998.85
2018-06-18T04:09:29.378Z,998.83
2018-06-18T04:10:39.446Z,998.85
2018-06-18T04:11:49.268Z,998.82
2018-06-18T04:12:59.364Z,998.84
2018-06-18T04:14:09.193Z,998.87
2018-06-18T04:15:19.256Z,998.93
2018-06-18T04:16:29.085Z,998.82
2018-06-18T04:17:39.170Z,998.95
2018-06-18T04:18:48.975Z,999.15
2018-06-18T04:19:58.777Z,999.4
2018-06-18T04:21:08.871Z,999.42
2018-06-18T04:22:18.941Z,999.41
2018-06-18T04:23:28.768Z,999.36
2018-06-18T04:24:38.592Z,999.45
2018-06-18T04:25:48.929Z,999.51
2018-06-18T04:26:59.062Z,999.51
2018-06-18T04:28:08.601Z,999.44
2018-06-18T04:29:18.661Z,999.47
2018-06-18T04:30:28.739Z,999.51
2018-06-18T04:31:38.809Z,999.47
2018-06-18T04:32:48.680Z,999.46
2018-06-18T04:33:58.764Z,999.36
2018-06-18T04:35:08.858Z,999.36
2018-06-18T04:36:18.935Z,999.29
2018-06-18T04:37:29.075Z,999.07
2018-06-18T04:38:39.525Z,999.18
2018-06-18T04:39:49.613Z,999.14
2018-06-18T04:40:59.725Z,999.11
2018-06-18T04:42:09.288Z,999.1
2018-06-18T04:43:19.369Z,999.11
2018-06-18T04:44:29.454Z,999.11
2018-06-18T04:45:39.068Z,999.15
2018-06-18T04:46:49.136Z,999.13
2018-06-18T04:47:58.959Z,999.12
2018-06-18T04:49:08.799Z,999.12
2018-06-18T04:50:18.667Z,999.17
2018-06-18T04:51:28.748Z,999.2
2018-06-18T04:52:38.860Z,999.17
2018-06-18T04:53:48.950Z,999.17
2018-06-18T04:54:58.527Z,999.19
2018-06-18T04:56:08.595Z,999.25
2018-06-18T04:57:18.757Z,999.23
2018-06-18T04:58:28.825Z,999.17
2018-06-18T04:59:38.394Z,999.28
2018-06-18T05:00:48.212Z,999.25
2018-06-18T05:01:58.478Z,999.32
2018-06-18T05:03:08.301Z,999.62
2018-06-18T05:04:18.388Z,999.29
2018-06-18T05:05:28.479Z,999.49
2018-06-18T05:06:38.554Z,999.52
2018-06-18T05:07:48.686Z,999.44
2018-06-18T05:08:58.773Z,999.57
2018-06-18T05:10:08.864Z,999.72
2018-06-18T05:11:18.952Z,999.73
2018-06-18T05:12:28.751Z,999.72
2018-06-18T05:13:38.575Z,999.73
2018-06-18T05:14:48.653Z,999.78
2018-06-18T05:15:58.731Z,999.71
2018-06-18T05:17:08.543Z,999.81
2018-06-18T05:18:18.613Z,999.91
2018-06-18T05:19:28.677Z,999.94
2018-06-18T05:20:38.754Z,999.95
2018-06-18T05:21:49.207Z,999.68
2018-06-18T05:22:58.787Z,999.64
2018-06-18T05:24:08.873Z,999.67
2018-06-18T05:25:18.684Z,999.72
2018-06-18T05:26:28.796Z,1000
2018-06-18T05:27:38.674Z,999.95
2018-06-18T05:28:48.485Z,1000.36
2018-06-18T05:29:58.556Z,1000.41
2018-06-18T05:31:08.388Z,1000.33
2018-06-18T05:32:18.205Z,1000.36
2018-06-18T05:33:28.292Z,1000.32
2018-06-18T05:34:38.392Z,1000.43
2018-06-18T05:35:48.484Z,1000.05
2018-06-18T05:36:58.571Z,1000.39
2018-06-18T05:38:08.630Z,1000.5
2018-06-18T05:39:18.730Z,1000.41
2018-06-18T05:40:28.801Z,1000.41
2018-06-18T05:41:38.911Z,1000.43
2018-06-18T05:42:48.994Z,1000.5
2018-06-18T05:43:58.808Z,1000.5
2018-06-18T05:45:08.888Z,1000.5
2018-06-18T05:46:18.980Z,1000.47
2018-06-18T05:47:28.782Z,1000.41
2018-06-18T05:48:38.849Z,1000.43
2018-06-18T05:49:48.930Z,1000.52
2018-06-18T05:50:58.773Z,1000.57
2018-06-18T05:52:08.612Z,1000.46
2018-06-18T05:53:18.700Z,1000.38
2018-06-18T05:54:28.813Z,1000.61
2018-06-18T05:55:38.629Z,1000.46
2018-06-18T05:56:48.440Z,1000.39
2018-06-18T05:57:58.509Z,1000.45
2018-06-18T05:59:08.599Z,1000.43
2018-06-18T06:00:18.422Z,1000.58
2018-06-18T06:01:28.233Z,1000.57
2018-06-18T06:02:38.306Z,1000.43
2018-06-18T06:03:48.392Z,1000.44
2018-06-18T06:04:57.977Z,1000.46
2018-06-18T06:06:08.163Z,1000.38
2018-06-18T06:07:18.493Z,1000.37
2018-06-18T06:08:28.567Z,1000.44
2018-06-18T06:09:38.654Z,1000.55
2018-06-18T06:10:48.741Z,1000.53
2018-06-18T06:11:58.818Z,1000.43
2018-06-18T06:13:08.905Z,1000.37
2018-06-18T06:14:18.742Z,1000.52
2018-06-18T06:15:28.833Z,1000.52
2018-06-18T06:16:38.928Z,1000.52
2018-06-18T06:17:48.803Z,1000.42
2018-06-18T06:18:58.868Z,1000.38
2018-06-18T06:20:08.955Z,1000.26
2018-06-18T06:21:19.104Z,1000.66
2018-06-18T06:22:29.200Z,1000.34
2018-06-18T06:23:39.140Z,1000.4
2018-06-18T06:24:48.946Z,1000.36
2018-06-18T06:25:59.025Z,1000.5
2018-06-18T06:27:09.112Z,1000.42
2018-06-18T06:28:19.215Z,1000.49
2018-06-18T06:29:29.298Z,1000.51
2018-06-18T06:30:39.772Z,1000.51
2018-06-18T06:31:49.845Z,1000.47
2018-06-18T06:32:59.930Z,1000.46
2018-06-18T06:34:09.779Z,1000.48
2018-06-18T06:35:19.984Z,1000.48
2018-06-18T06:36:30.066Z,1000.37
2018-06-18T06:37:39.868Z,1000.46
2018-06-18T06:38:50.027Z,1000.42
2018-06-18T06:40:00.165Z,1000.41
2018-06-18T06:41:09.989Z,1000.38
2018-06-18T06:42:19.806Z,1000.34
2018-06-18T06:43:30.196Z,1000.41
2018-06-18T06:44:39.747Z,1000.36
2018-06-18T06:45:49.560Z,1000.38
2018-06-18T06:46:59.649Z,1000.39
2018-06-18T06:48:09.746Z,1000.35
2018-06-18T06:49:19.844Z,1000.36
2018-06-18T06:50:29.924Z,1000.39
2018-06-18T06:51:40.020Z,1000.37
2018-06-18T06:52:50.131Z,1000.41
2018-06-18T06:53:59.957Z,1000.26
2018-06-18T06:55:10.050Z,1000.38
2018-06-18T06:56:20.124Z,1000.36
2018-06-18T06:57:29.942Z,1000.38
2018-06-18T06:58:40.050Z,1000.38
2018-06-18T06:59:49.883Z,1000.44
2018-06-18T07:00:59.975Z,1000.4
2018-06-18T07:02:10.055Z,1000.54
2018-06-18T07:03:19.913Z,1000.22
2018-06-18T07:04:29.791Z,1000.38
2018-06-18T07:05:39.875Z,1000.42
2018-06-18T07:06:49.999Z,1000.42
2018-06-18T07:08:00.168Z,1000.45
2018-06-18T07:09:10.428Z,1000.33
2018-06-18T07:10:20.517Z,1000.47
2018-06-18T07:11:30.632Z,1000.35
2018-06-18T07:12:40.757Z,1000.32
2018-06-18T07:13:50.579Z,1000.35
2018-06-18T07:15:00.675Z,1000.35
2018-06-18T07:16:10.748Z,1000.45
2018-06-18T07:17:20.830Z,1000.4
2018-06-18T07:18:30.982Z,1000.42
2018-06-18T07:19:40.801Z,1000.46
2018-06-18T07:20:50.888Z,1000.44
2018-06-18T07:22:01.187Z,1000.42
2018-06-18T07:23:10.749Z,1000.41
2018-06-18T07:24:20.817Z,1000.55
2018-06-18T07:25:30.892Z,1000.48
2018-06-18T07:26:40.452Z,1000.52
2018-06-18T07:27:50.544Z,1000.5
2018-06-18T07:29:00.626Z,1000.5
2018-06-18T07:30:10.732Z,1000.54
2018-06-18T07:31:20.943Z,1000.51
2018-06-18T07:32:31.009Z,1000.63
2018-06-18T07:33:41.103Z,1000.46
2018-06-18T07:34:50.929Z,1000.43
2018-06-18T07:36:01.008Z,1000.47
2018-06-18T07:37:11.129Z,1000.46
2018-06-18T07:38:21.214Z,1000.39
2018-06-18T07:39:31.441Z,1000.38
2018-06-18T07:40:40.991Z,1000.44
2018-06-18T07:41:50.816Z,1000.41
2018-06-18T07:43:00.897Z,1000.43
2018-06-18T07:44:10.989Z,1000.49
2018-06-18T07:45:20.811Z,1000.42
2018-06-18T07:46:31.021Z,1000.48
2018-06-18T07:47:41.111Z,1000.43
2018-06-18T07:48:50.924Z,1000.34
2018-06-18T07:50:01.009Z,1000.34
2018-06-18T07:51:11.112Z,1000.42
2018-06-18T07:52:20.924Z,1000.39
2018-06-18T07:53:30.754Z,1000.34
2018-06-18T07:54:40.869Z,1000.34
2018-06-18T07:55:50.962Z,1000.32
2018-06-18T07:57:01.033Z,1000.46
2018-06-18T07:58:11.113Z,1000.38
2018-06-18T07:59:21.195Z,1000.4
2018-06-18T08:00:31.145Z,1000.32
2018-06-18T08:01:41.238Z,1000.44
2018-06-18T08:02:51.053Z,1000.45
2018-06-18T08:04:00.342Z,1000.34
2018-06-18T08:05:09.901Z,1000.33
2018-06-18T08:06:19.974Z,1000.49
2018-06-18T08:07:30.082Z,1000.43
2018-06-18T08:08:40.201Z,1000.47
2018-06-18T08:09:50.428Z,1000.37
2018-06-18T08:11:00.973Z,1000.33
2018-06-18T08:12:11.067Z,1000.34
2018-06-18T08:13:21.167Z,1000.42
2018-06-18T08:14:31.331Z,1000.48
2018-06-18T08:15:41.467Z,1000.49
2018-06-18T08:16:51.560Z,1000.44
2018-06-18T08:18:01.396Z,1000.33
2018-06-18T08:19:11.313Z,1000.28
2018-06-18T08:20:21.621Z,1000.4
2018-06-18T08:21:31.747Z,1000.39
2018-06-18T08:22:41.860Z,1000.31
2018-06-18T08:23:52.025Z,1000.34
2018-06-18T08:25:01.861Z,1000.36
2018-06-18T08:26:11.958Z,1000.41
2018-06-18T08:27:22.553Z,1000.36
2018-06-18T08:28:33.146Z,1000.37
2018-06-18T08:29:43.248Z,1000.31
2018-06-18T08:30:53.343Z,1000.32
2018-06-18T08:32:03.440Z,1000.48
2018-06-18T08:33:13.598Z,1000.3
2018-06-18T08:34:23.487Z,1000.32
2018-06-18T08:35:33.681Z,1000.3
2018-06-18T08:36:44.076Z,1000.36
2018-06-18T08:37:54.194Z,1000.21
2018-06-18T08:39:04.415Z,1000.27
2018-06-18T08:40:14.598Z,1000.31
2018-06-18T08:41:24.794Z,1000.33
2018-06-18T08:42:34.889Z,1000.36
2018-06-18T08:43:45.013Z,1000.43
2018-06-18T08:44:55.140Z,1000.36
2018-06-18T08:46:05.299Z,1000.32
2018-06-18T08:47:15.552Z,1000.35
2018-06-18T08:48:25.740Z,1000.27
2018-06-18T08:49:36.574Z,1000.37
2018-06-18T08:50:46.700Z,1000.26
2018-06-18T08:51:56.819Z,1000.29
2018-06-18T08:53:07.036Z,1000.31
2018-06-18T08:54:17.155Z,1000.27
2018-06-18T08:55:27.246Z,1000.22
2018-06-18T08:56:37.340Z,1000.27
2018-06-18T08:57:47.461Z,1000.39
2018-06-18T08:58:57.976Z,1000.29
2018-06-18T09:00:07.822Z,1000.31
2018-06-18T09:01:17.929Z,1000.26
2018-06-18T09:02:28.030Z,1000.25
2018-06-18T09:03:37.605Z,1000.25
2018-06-18T09:04:47.494Z,1000.28
2018-06-18T09:05:57.587Z,1000.34
2018-06-18T09:07:07.678Z,1000.28
2018-06-18T09:08:17.780Z,1000.24
2018-06-18T09:09:27.866Z,1000.25
2018-06-18T09:10:37.939Z,1000.26
2018-06-18T09:11:48.064Z,1000.36
2018-06-18T09:12:58.143Z,1000.29
2018-06-18T09:14:08.238Z,1000.24
2018-06-18T09:15:18.326Z,1000.27
2018-06-18T09:16:28.495Z,1000.38
2018-06-18T09:17:38.575Z,1000.3
2018-06-18T09:18:48.686Z,1000.21
2018-06-18T09:19:58.818Z,1000.27
2018-06-18T09:21:08.917Z,1000.33
2018-06-18T09:22:19.003Z,1000.28
2018-06-18T09:23:29.092Z,1000.23
2018-06-18T09:24:39.294Z,1000.28
2018-06-18T09:25:49.147Z,1000.28
2018-06-18T09:26:58.989Z,1000.26
2018-06-18T09:28:09.085Z,1000.27
2018-06-18T09:29:19.169Z,1000.24
2018-06-18T09:30:29.245Z,1000.32
2018-06-18T09:31:39.349Z,1000.34
2018-06-18T09:32:49.172Z,1000.37
2018-06-18T09:33:59.264Z,1000.32
2018-06-18T09:35:09.359Z,1000.29
2018-06-18T09:36:19.451Z,1000.38
2018-06-18T09:37:29.559Z,1000.36
2018-06-18T09:38:39.660Z,1000.39
2018-06-18T09:39:49.227Z,1000.34
2018-06-18T09:40:59.319Z,1000.19
2018-06-18T09:42:09.405Z,1000.33
2018-06-18T09:43:18.987Z,1000.35
2018-06-18T09:44:29.103Z,1000.46
2018-06-18T09:45:39.260Z,1000.3
2018-06-18T09:46:49.348Z,1000.34
2018-06-18T09:47:59.211Z,1000.23
2018-06-18T09:49:09.681Z,1000.3
2018-06-18T09:50:19.773Z,1000.32
2018-06-18T09:51:29.872Z,1000.46
2018-06-18T09:52:39.960Z,1000.34
2018-06-18T09:53:50.051Z,1000.34
2018-06-18T09:54:59.881Z,1000.28
2018-06-18T09:56:09.713Z,1000.37
2018-06-18T09:57:19.787Z,1000.36
2018-06-18T09:58:29.884Z,1000.47
2018-06-18T09:59:39.984Z,1000.39
2018-06-18T10:00:50.081Z,1000.38
2018-06-18T10:02:00.186Z,1000.39
2018-06-18T10:03:10.021Z,1000.37
2018-06-18T10:04:20.115Z,1000.43
2018-06-18T10:05:30.210Z,1000.36
2018-06-18T10:06:40.299Z,1000.53
2018-06-18T10:07:50.393Z,1000.41
2018-06-18T10:09:00.569Z,1000.48
2018-06-18T10:10:10.668Z,1000.4
2018-06-18T10:11:20.815Z,1000.4
2018-06-18T10:12:30.910Z,1000.25
2018-06-18T10:13:40.713Z,1000.42
2018-06-18T10:14:50.601Z,1000.5
2018-06-18T10:16:00.687Z,1000.48
2018-06-18T10:17:10.793Z,1000.42
2018-06-18T10:18:20.882Z,1000.34
2018-06-18T10:19:30.703Z,1000.43
2018-06-18T10:20:40.839Z,1000.58
2018-06-18T10:21:50.937Z,1000.54
2018-06-18T10:23:00.751Z,1000.54
2018-06-18T10:24:10.586Z,1000.59
2018-06-18T10:25:21.290Z,1000.37
2018-06-18T10:26:31.398Z,1000.42
2018-06-18T10:27:41.504Z,1000.48
2018-06-18T10:28:51.340Z,1000.53
2018-06-18T10:30:01.417Z,1000.58
2018-06-18T10:31:11.541Z,1000.51
2018-06-18T10:32:21.624Z,1000.53
2018-06-18T10:33:31.704Z,1000.46
2018-06-18T10:34:41.799Z,1000.42
2018-06-18T10:35:51.886Z,1000.53
2018-06-18T10:37:01.994Z,1000.58
2018-06-18T10:38:11.819Z,1000.34
2018-06-18T10:39:21.901Z,1000.64
2018-06-18T10:40:31.726Z,1000.65
2018-06-18T10:41:41.554Z,1000.47
2018-06-18T10:42:51.650Z,1000.44
2018-06-18T10:44:01.767Z,1000.5
2018-06-18T10:45:11.577Z,1000.46
2018-06-18T10:46:21.671Z,1000.33
2018-06-18T10:47:31.784Z,1000.42
2018-06-18T10:48:41.895Z,1000.35
2018-06-18T10:49:52.053Z,1000.35
2018-06-18T10:51:02.165Z,1000.33
2018-06-18T10:52:12.278Z,1000.22
2018-06-18T10:53:22.375Z,1000.31
2018-06-18T10:54:32.452Z,1000.26
2018-06-18T10:55:42.592Z,1000.32
2018-06-18T10:56:52.688Z,1000.28
2018-06-18T10:58:02.696Z,1000.4
2018-06-18T10:59:12.791Z,1000.31
2018-06-18T11:00:22.871Z,1000.23
2018-06-18T11:01:32.690Z,1000.17
2018-06-18T11:02:42.777Z,1000.21
2018-06-18T11:03:52.964Z,1000.21
2018-06-18T11:05:03.088Z,1000.19
2018-06-18T11:06:13.191Z,1000.2
2018-06-18T11:07:23.315Z,1000.13
2018-06-18T11:08:33.434Z,1000.13
2018-06-18T11:09:43.518Z,1000.15
2018-06-18T11:10:53.628Z,1000.12
2018-06-18T11:12:03.756Z,1000.23
2018-06-18T11:13:13.850Z,1000.21
2018-06-18T11:14:23.932Z,1000.03
2018-06-18T11:15:34.031Z,1000.08
2018-06-18T11:16:44.169Z,999.98
2018-06-18T11:17:56.093Z,1000.01
2018-06-18T11:19:06.248Z,999.96
2018-06-18T11:20:16.332Z,1000.1
2018-06-18T11:21:26.430Z,1000.05
2018-06-18T11:22:36.533Z,1000.1
2018-06-18T11:23:46.633Z,1000.05
2018-06-18T11:24:56.813Z,999.95
2018-06-18T11:26:06.973Z,999.93
2018-06-18T11:27:17.239Z,999.93
2018-06-18T11:28:27.803Z,1000.14
2018-06-18T11:29:37.893Z,1000.09
2018-06-18T11:30:48.023Z,1000.05
2018-06-18T11:31:57.856Z,999.98
2018-06-18T11:33:07.958Z,999.88
2018-06-18T11:34:18.060Z,999.94
2018-06-18T11:35:28.179Z,999.97
2018-06-18T11:36:38.120Z,1000.01
2018-06-18T11:37:48.199Z,999.98
2018-06-18T11:38:58.558Z,999.93
2018-06-18T11:40:08.685Z,1000.02
2018-06-18T11:41:18.772Z,999.87
2018-06-18T11:42:28.604Z,999.91
2018-06-18T11:43:38.817Z,1000.01
2018-06-18T11:44:49.307Z,999.93
2018-06-18T11:45:59.460Z,999.88
2018-06-18T11:47:09.532Z,999.9
2018-06-18T11:48:19.515Z,999.85
2018-06-18T11:49:29.730Z,999.99
2018-06-18T11:50:39.824Z,999.97
2018-06-18T11:51:49.924Z,999.91
2018-06-18T11:53:00.064Z,999.92
2018-06-18T11:54:09.967Z,999.88
2018-06-18T11:55:19.618Z,999.88
2018-06-18T11:56:29.715Z,999.86
2018-06-18T11:57:40.178Z,999.89
2018-06-18T11:58:50.355Z,999.81
2018-06-18T12:00:00.263Z,999.82
2018-06-18T12:01:10.439Z,999.76
2018-06-18T12:02:20.581Z,999.75
2018-06-18T12:03:30.221Z,999.8
2018-06-18T12:04:40.343Z,999.78
2018-06-18T12:05:50.519Z,999.83
2018-06-18T12:07:00.659Z,999.82
2018-06-18T12:08:10.972Z,999.8
2018-06-18T12:09:21.121Z,999.73
2018-06-18T12:10:31.470Z,999.83
2018-06-18T12:11:41.585Z,999.79
2018-06-18T12:12:51.405Z,999.84
2018-06-18T12:14:01.247Z,999.86
2018-06-18T12:15:11.096Z,999.85
2018-06-18T12:16:21.195Z,999.87
2018-06-18T12:17:31.352Z,999.85
2018-06-18T12:18:41.173Z,999.98
2018-06-18T12:19:51.272Z,999.76
2018-06-18T12:21:01.373Z,999.85
2018-06-18T12:22:11.512Z,999.96
2018-06-18T12:23:21.198Z,999.8
2018-06-18T12:24:31.312Z,999.84
2018-06-18T12:25:41.143Z,999.92
2018-06-18T12:26:51.003Z,999.91
2018-06-18T12:28:01.108Z,999.8
2018-06-18T12:29:11.412Z,999.85
2018-06-18T12:30:21.530Z,999.88
2018-06-18T12:31:31.386Z,999.92
2018-06-18T12:32:40.972Z,999.87
2018-06-18T12:33:51.050Z,999.86
2018-06-18T12:35:01.178Z,999.85
2018-06-18T12:36:11.266Z,999.78
2018-06-18T12:37:21.382Z,999.72
2018-06-18T12:38:31.480Z,999.84
2018-06-18T12:39:41.332Z,999.88
2018-06-18T12:40:51.467Z,999.96
2018-06-18T12:42:01.629Z,1000
2018-06-18T12:43:11.715Z,999.83
2018-06-18T12:44:21.819Z,1000
2018-06-18T12:45:31.915Z,999.87
2018-06-18T12:46:42.136Z,999.93
2018-06-18T12:47:53.050Z,999.78
2018-06-18T12:49:03.325Z,999.82
2018-06-18T12:50:13.586Z,999.74
2018-06-18T12:51:23.774Z,999.72
2018-06-18T12:52:33.626Z,999.83
2018-06-18T12:53:43.738Z,999.75
2018-06-18T12:54:53.599Z,999.77
2018-06-18T12:56:03.704Z,999.69
2018-06-18T12:57:13.856Z,999.68
2018-06-18T12:58:23.968Z,999.75
2018-06-18T12:59:33.841Z,999.69
2018-06-18T13:00:43.961Z,999.64
2018-06-18T13:01:54.108Z,999.55
2018-06-18T13:03:04.203Z,999.73
2018-06-18T13:04:14.026Z,999.66
2018-06-18T13:05:24.237Z,999.71
2018-06-18T13:06:34.354Z,999.74
2018-06-18T13:07:44.527Z,999.75
2018-06-18T13:08:54.660Z,999.87
2018-06-18T13:10:04.556Z,999.79
2018-06-18T13:11:15.114Z,999.67
2018-06-18T13:12:25.263Z,999.6
2018-06-18T13:13:35.094Z,999.66
2018-06-18T13:14:45.209Z,999.7
2018-06-18T13:15:55.315Z,999.73
2018-06-18T13:17:05.476Z,999.79
2018-06-18T13:18:15.584Z,999.82
2018-06-18T13:19:25.715Z,999.79
2018-06-18T13:20:35.281Z,999.73
2018-06-18T13:21:45.208Z,999.68
2018-06-18T13:22:55.322Z,999.81
2018-06-18T13:24:05.443Z,999.73
2018-06-18T13:25:15.552Z,999.74
2018-06-18T13:26:25.657Z,999.76
2018-06-18T13:27:35.513Z,999.78
2018-06-18T13:28:45.855Z,999.7
2018-06-18T13:29:55.970Z,999.86
2018-06-18T13:31:06.155Z,999.77
2018-06-18T13:32:16.015Z,999.72
2018-06-18T13:33:25.945Z,999.76
2018-06-18T13:34:36.054Z,999.65
2018-06-18T13:35:46.169Z,999.5
2018-06-18T13:36:56.340Z,999.54
2018-06-18T13:38:06.718Z,999.59
2018-06-18T13:39:16.822Z,999.57
2018-06-18T13:40:26.957Z,999.67
2018-06-18T13:41:37.324Z,999.6
2018-06-18T13:42:47.469Z,999.79
2018-06-18T13:43:57.588Z,999.68
2018-06-18T13:45:08.052Z,999.63
2018-06-18T13:46:18.156Z,999.68
2018-06-18T13:47:28.269Z,999.57
2018-06-18T13:48:38.355Z,999.53
2018-06-18T13:57:05.868Z,999.55
2018-06-18T13:58:15.713Z,999.61
2018-06-18T13:59:25.872Z,999.68
2018-06-18T14:00:35.963Z,999.58
2018-06-18T14:01:46.049Z,999.64
2018-06-18T14:02:56.155Z,999.54
2018-06-18T14:04:06.486Z,999.54
2018-06-18T14:05:16.629Z,999.44
2018-06-18T14:06:26.739Z,999.61
2018-06-18T14:07:36.968Z,999.61
2018-06-18T14:08:47.312Z,999.63
2018-06-18T14:09:57.424Z,999.47
2018-06-18T14:11:07.536Z,999.46
2018-06-18T14:12:17.645Z,999.47
2018-06-18T14:13:27.737Z,999.43
2018-06-18T14:14:37.886Z,999.13
2018-06-18T14:15:47.990Z,999.59
2018-06-18T14:16:58.068Z,999.55
2018-06-18T14:18:08.180Z,999.53
2018-06-18T14:19:18.245Z,999.56
2018-06-18T14:20:28.052Z,999.58
2018-06-18T14:21:38.159Z,999.5
2018-06-18T14:22:48.256Z,999.56
2018-06-18T14:23:58.335Z,999.56
2018-06-18T14:25:08.149Z,999.5
2018-06-18T14:26:18.308Z,999.47
2018-06-18T14:27:28.155Z,999.51
2018-06-18T14:28:38.255Z,999.51
2018-06-18T14:29:47.821Z,999.4
2018-06-18T14:30:57.932Z,999.55
2018-06-18T14:32:07.755Z,999.51
2018-06-18T14:33:17.603Z,999.48
2018-06-18T14:34:27.714Z,999.49
2018-06-18T14:35:37.818Z,999.42
2018-06-18T14:36:47.661Z,999.47
2018-06-18T14:37:57.760Z,999.54
2018-06-18T14:39:07.600Z,999.51
2018-06-18T14:40:17.769Z,999.58
2018-06-18T14:41:28.025Z,999.44
2018-06-18T14:42:38.169Z,999.43
2018-06-18T14:43:48.516Z,999.56
2018-06-18T14:44:58.620Z,999.53
2018-06-18T14:46:09.098Z,999.5
2018-06-18T14:47:19.188Z,999.57
2018-06-18T14:48:29.554Z,999.52
2018-06-18T14:49:40.454Z,999.57
2018-06-18T14:50:50.811Z,999.53
2018-06-18T14:52:00.925Z,999.42
2018-06-18T14:53:11.016Z,999.51
2018-06-18T14:54:20.886Z,999.56
2018-06-18T14:55:31.225Z,999.49
2018-06-18T14:56:41.349Z,999.55
2018-06-18T14:57:51.698Z,999.54
2018-06-18T14:59:01.581Z,999.54
2018-06-18T15:00:11.990Z,999.38
2018-06-18T15:01:22.109Z,999.46
2018-06-18T15:02:32.230Z,999.49
2018-06-18T15:03:42.358Z,999.58